Indianapolis, IN (46295)

1:50 PM EST on February 01, 2015 (GMT -0500)
Southern Dunes | Change Station
CLOSE
Current Station
Personal Weather Station
Location: Indianapolis, IN
Elevation: 668 ft
Nearby Weather Stations

Elev 668 ft 39.65 °N, 86.21 °W | Updated 10 seconds ago

Ice Pellets
Ice Pellets
35.7 °F
Feels Like 36 °F
N
1.0
Wind Variable Wind from SE
Gusts 4.0 mph

Today
High -- | Low -- °F
--% Chance of Precip.
Yesterday
High -- | Low -- °F
Precip. -- in
7:52 AM 6:04 PM
Waxing Gibbous, 96% visible
Pressure 29.77 in
Visibility 4.0 miles
Clouds Overcast 1800 ft
Windchill 36 °F
Dew Point 34 °F
Humidity 94%
Rainfall 0.25 in
Snow Depth Not available.
UV 1 out of 12
Pollen .10 out of 12
Air Quality Not available.
Flu Activity Not available.
METAR KIND 011754Z 11007KT 4SM -RA BR OVC018 M01/M01 A2974 RMK AO2 PLE44 SLP079 4/001 P0003 60016 T10061011 10000 21011 58047 $

More Conditions Fewer Conditions

Pressure 29.77 in
Visibility 4.0 miles
Clouds Overcast 1800 ft
Windchill 36 °F
Dew Point 34 °F
Humidity 94%
Rainfall 0.25 in
Snow Depth Not available.
UV 1 out of 12
Pollen .10 out of 12
Air Quality Not available.
Flu Activity Not available.
METAR KIND 011754Z 11007KT 4SM -RA BR OVC018 M01/M01 A2974 RMK AO2 PLE44 SLP079 4/001 P0003 60016 T10061011 10000 21011 58047 $

More Conditions Fewer Conditions

10-Day Weather Forecast

Almanac

Astronomy

Feb. 01, 2015 Rise Set
Actual Time
Civil Twilight
Nautical Twilight
Astronomical Twilight
Moon
Length of Visible Light
Length of Day
Tomorrow will be .
, % of the Moon is Illuminated

Today's Extremes

State Highs State Lows

Community

WunderPhotos

Upload Photos

1,792,434 photos uploaded!

WunderBlogs® & News

Nearby

Air Quality

  Air Quality AQ Index Pollutant
Not available.

Snow Depth

Station Depth Elevation

Earthquake Activity

City Distance Mag. Time & Date
Minimum magnitude displayed is 2.5.

Coastal Water Temperatures

Place Temperature

Nearby Weather Stations